createdAt,value
2019-02-10T00:01:34.612Z,100081.16
2019-02-10T00:04:03.812Z,100079.30
2019-02-10T00:06:33.002Z,100078.66
2019-02-10T00:09:02.214Z,100074.41
2019-02-10T00:11:31.364Z,100074.23
2019-02-10T00:14:00.647Z,100065.54
2019-02-10T00:16:30.090Z,100064.51
2019-02-10T00:18:59.256Z,100050.86
2019-02-10T00:21:28.553Z,100053.59
2019-02-10T00:23:57.870Z,100047.08
2019-02-10T00:26:27.260Z,100046.72
2019-02-10T00:28:56.470Z,100042.34
2019-02-10T00:31:25.838Z,100041.51
2019-02-10T00:33:55.002Z,100033.47
2019-02-10T00:36:24.210Z,100036.08
2019-02-10T00:38:53.552Z,100032.77
2019-02-10T00:41:25.519Z,100039.48
2019-02-10T00:43:54.738Z,100038.18
2019-02-10T00:46:23.919Z,100038.38
2019-02-10T00:48:53.155Z,100022.39
2019-02-10T00:51:22.338Z,100017.82
2019-02-10T00:53:51.489Z,100017.72
2019-02-10T00:56:21.183Z,100009.27
2019-02-10T00:58:50.364Z,100010.23
2019-02-10T01:01:19.546Z,100004.03
2019-02-10T01:03:48.744Z,100001.53
2019-02-10T01:06:17.901Z,100000.27
2019-02-10T01:08:47.213Z,99988.75
2019-02-10T01:11:16.357Z,99988.25
2019-02-10T01:13:45.582Z,99983.72
2019-02-10T01:16:14.807Z,99979.64
2019-02-10T01:19:21.825Z,99969.17
2019-02-10T01:21:51.204Z,99963.13
2019-02-10T01:24:20.402Z,99956.72
2019-02-10T01:26:49.565Z,99952.98
2019-02-10T01:29:18.851Z,99948.75
2019-02-10T01:31:48.142Z,99945.88
2019-02-10T01:34:17.439Z,99936.84
2019-02-10T01:36:49.830Z,99938.04
2019-02-10T01:39:19.782Z,99930.33
2019-02-10T01:41:48.964Z,99925.42
2019-02-10T01:44:18.391Z,99918.73
2019-02-10T01:46:47.590Z,99915.00
2019-02-10T01:49:16.730Z,99900.69
2019-02-10T01:51:45.910Z,99902.86
2019-02-10T01:54:15.285Z,99898.02
2019-02-10T01:56:44.449Z,99890.95
2019-02-10T01:59:13.619Z,99883.52
2019-02-10T02:01:42.827Z,99881.55
2019-02-10T02:04:12.025Z,99873.38
2019-02-10T02:06:41.637Z,99863.59
2019-02-10T02:09:13.102Z,99865.63
2019-02-10T02:11:42.446Z,99845.39
2019-02-10T02:14:11.752Z,99849.09
2019-02-10T02:16:40.904Z,99842.50
2019-02-10T02:19:10.084Z,99839.91
2019-02-10T02:21:39.265Z,99823.41
2019-02-10T02:24:08.398Z,99820.23
2019-02-10T02:26:37.800Z,99822.16
2019-02-10T02:29:06.944Z,99805.83
2019-02-10T02:31:36.193Z,99805.34
2019-02-10T02:34:05.397Z,99806.91
2019-02-10T02:36:42.223Z,99799.31
2019-02-10T02:39:11.518Z,99796.91
2019-02-10T02:41:40.685Z,99786.35
2019-02-10T02:44:09.839Z,99780.78
2019-02-10T02:46:39.136Z,99779.22
2019-02-10T02:49:08.279Z,99764.13
2019-02-10T02:51:37.490Z,99762.04
2019-02-10T02:54:06.992Z,99756.94
2019-02-10T02:56:36.189Z,99748.92
2019-02-10T02:59:05.404Z,99740.28
2019-02-10T03:01:34.602Z,99740.39
2019-02-10T03:04:03.869Z,99745.23
2019-02-10T03:06:48.653Z,99736.48
2019-02-10T03:09:18.229Z,99719.10
2019-02-10T03:11:47.376Z,99718.70
2019-02-10T03:14:16.634Z,99707.82
2019-02-10T03:16:45.838Z,99701.06
2019-02-10T03:19:15.014Z,99697.63
2019-02-10T03:21:44.192Z,99688.63
2019-02-10T03:24:13.564Z,99678.57
2019-02-10T03:26:42.730Z,99673.94
2019-02-10T03:29:11.989Z,99672.02
2019-02-10T03:31:41.150Z,99657.45
2019-02-10T03:34:10.435Z,99650.13
2019-02-10T03:36:39.588Z,99649.72
2019-02-10T03:39:08.777Z,99645.71
2019-02-10T03:41:37.933Z,99628.80
2019-02-10T03:44:07.249Z,99630.21
2019-02-10T03:46:36.415Z,99625.83
2019-02-10T03:49:05.632Z,99616.73
2019-02-10T03:51:34.930Z,99614.20
2019-02-10T03:54:06.411Z,99608.95
2019-02-10T03:56:35.684Z,99604.16
2019-02-10T03:59:04.827Z,99594.08
2019-02-10T04:01:34.013Z,99588.26
2019-02-10T04:04:03.327Z,99585.19
2019-02-10T04:06:32.511Z,99579.72
2019-02-10T04:09:01.914Z,99575.09
2019-02-10T04:11:31.108Z,99566.74
2019-02-10T04:14:00.403Z,99548.89
2019-02-10T04:16:29.895Z,99546.66
2019-02-10T04:18:59.038Z,99535.65
2019-02-10T04:21:28.270Z,99524.20
2019-02-10T04:23:57.484Z,99513.63
2019-02-10T04:26:26.835Z,99511.12
2019-02-10T04:28:55.990Z,99504.63
2019-02-10T04:31:25.175Z,99491.63
2019-02-10T04:33:54.311Z,99486.86
2019-02-10T04:36:23.498Z,99478.70
2019-02-10T04:38:52.639Z,99462.39
2019-02-10T04:41:21.812Z,99452.36
2019-02-10T04:43:51.042Z,99443.23
2019-02-10T04:46:20.209Z,99437.67
2019-02-10T04:48:49.340Z,99437.67
2019-02-10T04:51:18.685Z,99422.19
2019-02-10T04:53:47.858Z,99406.59
2019-02-10T04:56:18.418Z,99396.10
2019-02-10T04:58:47.689Z,99394.70
2019-02-10T05:01:17.082Z,99380.16
2019-02-10T05:03:46.432Z,99371.64
2019-02-10T05:06:15.614Z,99371.17
2019-02-10T05:08:45.133Z,99360.31
2019-02-10T05:11:14.294Z,99355.91
2019-02-10T05:13:43.442Z,99349.02
2019-02-10T05:16:12.797Z,99333.80
2019-02-10T05:18:41.985Z,99319.73
2019-02-10T05:21:11.155Z,99314.91
2019-02-10T05:23:40.347Z,99299.33
2019-02-10T05:26:09.733Z,99281.84
2019-02-10T05:28:39.110Z,99258.94
2019-02-10T05:31:08.297Z,99248.09
2019-02-10T05:33:37.440Z,99238.36
2019-02-10T05:36:06.967Z,99215.36
2019-02-10T05:38:36.174Z,99210.02
2019-02-10T05:41:05.406Z,99198.56
2019-02-10T05:43:34.588Z,99189.98
2019-02-10T05:46:03.795Z,99172.14
2019-02-10T05:48:33.236Z,99169.87
2019-02-10T05:51:02.490Z,99151.60
2019-02-10T05:53:31.622Z,99137.08
2019-02-10T05:56:02.473Z,99128.47
2019-02-10T05:58:31.743Z,99124.44
2019-02-10T06:01:50.176Z,99103.20
2019-02-10T06:04:19.380Z,99101.33
2019-02-10T06:06:48.565Z,99086.34
2019-02-10T06:09:17.749Z,99077.84
2019-02-10T06:11:46.945Z,99064.39
2019-02-10T06:14:16.134Z,99051.67
2019-02-10T06:16:45.282Z,99047.67
2019-02-10T06:19:14.570Z,99041.87
2019-02-10T06:21:43.758Z,99027.48
2019-02-10T06:24:12.956Z,99021.47
2019-02-10T06:26:42.165Z,99019.94
2019-02-10T06:29:11.300Z,99014.86
2019-02-10T06:31:40.535Z,99005.20
2019-02-10T06:34:09.911Z,98995.53
2019-02-10T06:36:39.153Z,98985.63
2019-02-10T06:39:08.513Z,98969.11
2019-02-10T06:41:37.698Z,98958.27
2019-02-10T06:44:06.842Z,98942.22
2019-02-10T06:46:36.010Z,98925.59
2019-02-10T06:49:05.199Z,98911.55
2019-02-10T06:51:34.339Z,98900.11
2019-02-10T06:54:03.647Z,98897.04
2019-02-10T06:56:32.934Z,98886.86
2019-02-10T06:59:02.081Z,98883.67
2019-02-10T07:01:45.121Z,98876.95
2019-02-10T07:04:22.780Z,98856.89
2019-02-10T07:06:51.948Z,98847.45
2019-02-10T07:09:22.837Z,98847.33
2019-02-10T07:11:52.221Z,98837.06
2019-02-10T07:14:24.961Z,98828.09
2019-02-10T07:17:24.589Z,98816.05
2019-02-10T07:20:45.314Z,98813.06
2019-02-10T07:24:06.732Z,98814.12
2019-02-10T07:27:08.167Z,98808.91
2019-02-10T07:30:09.537Z,98800.04
2019-02-10T07:32:42.525Z,98799.98
2019-02-10T07:35:52.308Z,98793.72
2019-02-10T07:39:17.629Z,98793.48
2019-02-10T07:42:31.000Z,98791.69
2019-02-10T07:45:54.993Z,98777.88
2019-02-10T07:48:54.887Z,98761.88
2019-02-10T07:51:46.473Z,98736.34
2019-02-10T07:54:56.782Z,98734.67
2019-02-10T07:57:51.214Z,98710.69
2019-02-10T08:01:22.762Z,98693.22
2019-02-10T08:04:08.389Z,98691.19
2019-02-10T08:07:09.301Z,98664.12
2019-02-10T08:10:00.715Z,98656.62
2019-02-10T08:12:58.345Z,98643.34
2019-02-10T08:15:58.839Z,98640.22
2019-02-10T08:19:18.228Z,98636.06
2019-02-10T08:22:20.006Z,98627.95
2019-02-10T08:25:25.437Z,98616.16
2019-02-10T08:28:28.276Z,98608.66
2019-02-10T08:31:09.294Z,98602.83
2019-02-10T08:34:16.729Z,98599.70
2019-02-10T08:37:19.885Z,98608.88
2019-02-10T08:40:03.002Z,98590.30
2019-02-10T08:43:02.846Z,98576.68
2019-02-10T08:45:54.130Z,98571.00
2019-02-10T08:48:55.330Z,98567.03
2019-02-10T08:51:54.578Z,98566.93
2019-02-10T08:54:23.811Z,98560.49
2019-02-10T08:56:53.085Z,98557.48
2019-02-10T08:59:22.450Z,98555.83
2019-02-10T09:01:51.663Z,98544.16
2019-02-10T09:04:20.825Z,98538.63
2019-02-10T09:06:50.124Z,98530.03
2019-02-10T09:09:19.325Z,98519.00
2019-02-10T09:11:48.654Z,98515.64
2019-02-10T09:14:18.122Z,98511.45
2019-02-10T09:16:47.605Z,98498.44
2019-02-10T09:19:16.818Z,98497.13
2019-02-10T09:21:47.162Z,98491.70
2019-02-10T09:24:16.427Z,98487.91
2019-02-10T09:26:45.574Z,98480.63
2019-02-10T09:29:14.795Z,98488.22
2019-02-10T09:31:43.952Z,98478.64
2019-02-10T09:34:13.191Z,98478.21
2019-02-10T09:36:42.447Z,98466.54
2019-02-10T09:39:11.672Z,98459.40
2019-02-10T09:41:40.923Z,98456.36
2019-02-10T09:44:10.964Z,98457.20
2019-02-10T09:46:40.157Z,98451.51
2019-02-10T09:49:09.352Z,98454.64
2019-02-10T09:51:38.534Z,98437.56
2019-02-10T09:54:07.794Z,98437.66
2019-02-10T09:56:36.984Z,98434.23
2019-02-10T09:59:06.159Z,98436.27
2019-02-10T10:01:35.283Z,98430.75
2019-02-10T10:04:04.742Z,98425.09
2019-02-10T10:06:33.877Z,98424.85
2019-02-10T10:09:04.494Z,98428.99
2019-02-10T10:11:33.678Z,98429.37
2019-02-10T10:14:02.831Z,98425.13
2019-02-10T10:16:32.127Z,98422.38
2019-02-10T10:19:02.443Z,98411.64
2019-02-10T10:21:31.808Z,98413.77
2019-02-10T10:24:00.976Z,98408.55
2019-02-10T10:26:30.343Z,98399.94
2019-02-10T10:28:59.730Z,98406.98
2019-02-10T10:31:28.997Z,98403.25
2019-02-10T10:33:58.202Z,98411.71
2019-02-10T10:36:27.386Z,98403.44
2019-02-10T10:38:56.556Z,98399.06
2019-02-10T10:41:25.958Z,98391.91
2019-02-10T10:43:55.184Z,98395.85
2019-02-10T10:46:24.336Z,98396.19
2019-02-10T10:48:53.578Z,98381.04
2019-02-10T10:51:22.918Z,98380.91
2019-02-10T10:53:52.375Z,98377.69
2019-02-10T10:56:21.594Z,98379.94
2019-02-10T10:58:50.855Z,98385.29
2019-02-10T11:01:25.301Z,98389.66
2019-02-10T11:03:52.289Z,98382.50
2019-02-10T11:06:21.666Z,98383.32
2019-02-10T11:08:50.919Z,98380.70
2019-02-10T11:11:20.136Z,98389.11
2019-02-10T11:13:49.471Z,98378.07
2019-02-10T11:16:18.797Z,98383.51
2019-02-10T11:18:48.142Z,98371.29
2019-02-10T11:21:17.329Z,98367.38
2019-02-10T11:23:46.572Z,98365.89
2019-02-10T11:26:15.762Z,98363.77
2019-02-10T11:28:44.935Z,98357.87
2019-02-10T11:31:14.157Z,98359.97
2019-02-10T11:33:44.604Z,98352.09
2019-02-10T11:36:15.222Z,98356.47
2019-02-10T11:38:44.482Z,98359.83
2019-02-10T11:41:13.953Z,98370.03
2019-02-10T11:43:43.172Z,98361.59
2019-02-10T11:46:12.355Z,98374.22
2019-02-10T11:48:41.689Z,98359.66
2019-02-10T11:51:11.084Z,98356.75
2019-02-10T11:53:40.299Z,98338.53
2019-02-10T11:56:09.725Z,98341.33
2019-02-10T11:58:38.910Z,98341.20
2019-02-10T12:01:08.275Z,98347.06
2019-02-10T12:03:37.480Z,98336.62
2019-02-10T12:06:09.159Z,98339.39
2019-02-10T12:08:40.532Z,98342.00
2019-02-10T12:11:09.830Z,98339.53
2019-02-10T12:13:40.403Z,98354.30
2019-02-10T12:16:09.709Z,98358.95
2019-02-10T12:18:38.907Z,98361.03
2019-02-10T12:21:08.460Z,98357.68
2019-02-10T12:23:37.764Z,98366.12
2019-02-10T12:26:06.956Z,98368.88
2019-02-10T12:28:36.377Z,98361.02
2019-02-10T12:31:06.802Z,98359.52
2019-02-10T12:33:36.017Z,98365.22
2019-02-10T12:36:05.334Z,98369.76
2019-02-10T12:38:34.518Z,98364.36
2019-02-10T12:41:03.971Z,98369.91
2019-02-10T12:43:33.231Z,98375.10
2019-02-10T12:46:03.195Z,98367.91
2019-02-10T12:48:32.544Z,98362.72
2019-02-10T12:51:03.573Z,98346.38
2019-02-10T12:53:33.898Z,98351.97
2019-02-10T12:56:03.342Z,98355.06
2019-02-10T12:58:32.688Z,98368.24
2019-02-10T13:01:03.444Z,98366.94
2019-02-10T13:03:32.939Z,98378.29
2019-02-10T13:06:03.042Z,98374.00
2019-02-10T13:08:32.436Z,98372.80
2019-02-10T13:11:02.108Z,98373.56
2019-02-10T13:13:31.334Z,98378.69
2019-02-10T13:16:00.547Z,98386.78
2019-02-10T13:18:30.115Z,98369.37
2019-02-10T13:20:59.329Z,98369.66
2019-02-10T13:23:28.903Z,98387.84
2019-02-10T13:25:58.191Z,98376.64
2019-02-10T13:28:27.871Z,98380.31
2019-02-10T13:30:57.690Z,98375.12
2019-02-10T13:33:26.940Z,98369.91
2019-02-10T13:35:59.051Z,98382.05
2019-02-10T13:38:28.567Z,98376.75
2019-02-10T13:40:57.849Z,98390.53
2019-02-10T13:43:33.396Z,98393.73
2019-02-10T13:45:58.262Z,98381.27
2019-02-10T13:48:27.575Z,98409.35
2019-02-10T13:50:56.831Z,98403.16
2019-02-10T13:53:26.990Z,98411.75
2019-02-10T13:55:56.556Z,98407.48
2019-02-10T13:58:25.871Z,98406.64
2019-02-10T14:00:55.315Z,98421.83
2019-02-10T14:03:24.612Z,98424.47
2019-02-10T14:05:55.934Z,98440.75
2019-02-10T14:08:25.302Z,98451.45
2019-02-10T14:10:54.759Z,98473.34
2019-02-10T14:13:23.965Z,98445.50
2019-02-10T14:15:53.328Z,98471.64
2019-02-10T14:18:22.621Z,98489.45
2019-02-10T14:20:51.899Z,98485.59
2019-02-10T14:23:21.144Z,98518.80
2019-02-10T14:25:50.470Z,98513.87
2019-02-10T14:28:19.938Z,98535.28
2019-02-10T14:30:49.964Z,98528.35
2019-02-10T14:33:19.330Z,98525.25
2019-02-10T14:35:50.528Z,98543.66
2019-02-10T14:38:19.858Z,98531.14
2019-02-10T14:40:49.153Z,98534.09
2019-02-10T14:43:18.378Z,98533.01
2019-02-10T14:45:47.828Z,98527.12
2019-02-10T14:48:17.055Z,98530.53
2019-02-10T14:50:48.350Z,98535.16
2019-02-10T14:53:17.756Z,98535.16
2019-02-10T14:55:47.661Z,98536.11
2019-02-10T14:58:16.995Z,98537.67
2019-02-10T15:00:46.250Z,98548.53
2019-02-10T15:03:15.798Z,98551.94
2019-02-10T15:05:45.318Z,98553.58
2019-02-10T15:08:14.576Z,98545.19
2019-02-10T15:10:43.924Z,98551.20
2019-02-10T15:13:14.130Z,98554.44
2019-02-10T15:15:43.472Z,98555.96
2019-02-10T15:18:14.152Z,98552.77
2019-02-10T15:20:47.032Z,98564.86
2019-02-10T15:23:16.736Z,98560.46
2019-02-10T15:25:46.047Z,98564.70
2019-02-10T15:28:15.391Z,98568.85
2019-02-10T15:30:45.002Z,98566.25
2019-02-10T15:33:15.284Z,98576.55
2019-02-10T15:35:44.959Z,98581.92
2019-02-10T15:38:15.290Z,98578.03
2019-02-10T15:40:49.844Z,98577.70
2019-02-10T15:43:16.024Z,98585.78
2019-02-10T15:45:46.302Z,98590.91
2019-02-10T15:48:16.069Z,98593.52
2019-02-10T15:50:45.631Z,98591.95
2019-02-10T15:53:15.942Z,98596.11
2019-02-10T15:55:45.891Z,98603.30
2019-02-10T15:58:15.252Z,98595.63
2019-02-10T16:00:46.674Z,98608.88
2019-02-10T16:03:16.307Z,98602.95
2019-02-10T16:05:46.126Z,98616.00
2019-02-10T16:08:15.863Z,98618.88
2019-02-10T16:10:47.375Z,98611.78
2019-02-10T16:13:16.755Z,98620.08
2019-02-10T16:15:46.031Z,98626.44
2019-02-10T16:18:15.924Z,98625.29
2019-02-10T16:20:45.208Z,98639.79
2019-02-10T16:23:14.686Z,98637.32
2019-02-10T16:25:43.932Z,98643.36
2019-02-10T16:28:13.260Z,98642.02
2019-02-10T16:30:42.608Z,98649.23
2019-02-10T16:33:11.940Z,98651.28
2019-02-10T16:35:41.653Z,98660.96
2019-02-10T16:38:11.170Z,98661.08
2019-02-10T16:40:40.994Z,98670.86
2019-02-10T16:43:10.566Z,98674.17
2019-02-10T16:45:40.188Z,98679.34
2019-02-10T16:48:09.717Z,98684.06
2019-02-10T16:50:38.984Z,98688.07
2019-02-10T16:53:08.867Z,98695.03
2019-02-10T16:55:38.186Z,98695.54
2019-02-10T16:58:07.537Z,98703.16
2019-02-10T17:00:36.929Z,98710.63
2019-02-10T17:03:07.777Z,98717.70
2019-02-10T17:05:37.589Z,98724.67
2019-02-10T17:08:06.844Z,98727.38
2019-02-10T17:10:36.191Z,98733.04
2019-02-10T17:13:05.663Z,98739.09
2019-02-10T17:15:34.903Z,98736.93
2019-02-10T17:18:04.410Z,98738.97
2019-02-10T17:20:33.618Z,98745.68
2019-02-10T17:23:03.483Z,98761.70
2019-02-10T17:25:33.898Z,98765.23
2019-02-10T17:28:03.214Z,98768.89
2019-02-10T17:30:32.855Z,98786.81
2019-02-10T17:33:02.767Z,98790.47
2019-02-10T17:35:32.400Z,98797.06
2019-02-10T17:38:02.547Z,98803.44
2019-02-10T17:40:35.393Z,98810.03
2019-02-10T17:43:04.836Z,98818.39
2019-02-10T17:45:34.147Z,98827.56
2019-02-10T17:48:03.501Z,98827.11
2019-02-10T17:50:33.999Z,98839.69
2019-02-10T17:53:03.279Z,98844.84
2019-02-10T17:55:33.213Z,98859.22
2019-02-10T17:58:02.587Z,98862.86
2019-02-10T18:00:36.214Z,98870.72
2019-02-10T18:03:06.367Z,98869.39
2019-02-10T18:05:35.777Z,98891.62
2019-02-10T18:08:05.517Z,98901.45
2019-02-10T18:10:35.278Z,98905.04
2019-02-10T18:13:05.644Z,98910.64
2019-02-10T18:16:04.205Z,98921.05
2019-02-10T18:18:58.645Z,98931.61
2019-02-10T18:21:51.823Z,98936.77
2019-02-10T18:24:27.275Z,98948.37
2019-02-10T18:27:14.271Z,98960.42
2019-02-10T18:30:05.376Z,98970.15
2019-02-10T18:33:03.163Z,98971.88
2019-02-10T18:35:54.332Z,98985.13
2019-02-10T18:38:35.169Z,98984.14
2019-02-10T18:41:23.811Z,98991.63
2019-02-10T18:44:20.259Z,99000.32
2019-02-10T18:47:12.707Z,99001.48
2019-02-10T18:50:00.710Z,99007.81
2019-02-10T18:52:50.974Z,99015.94
2019-02-10T18:55:40.538Z,99020.74
2019-02-10T18:58:41.551Z,99028.14
2019-02-10T19:01:31.020Z,99034.14
2019-02-10T19:04:23.662Z,99048.33
2019-02-10T19:07:00.717Z,99054.33
2019-02-10T19:09:40.867Z,99066.33
2019-02-10T19:12:18.515Z,99065.41
2019-02-10T19:15:05.365Z,99080.58
2019-02-10T19:17:57.844Z,99080.97
2019-02-10T19:20:58.475Z,99099.39
2019-02-10T19:23:47.077Z,99091.73
2019-02-10T19:26:27.766Z,99109.46
2019-02-10T19:29:22.444Z,99116.38
2019-02-10T19:32:09.655Z,99122.11
2019-02-10T19:34:47.418Z,99131.44
2019-02-10T19:37:38.193Z,99142.60
2019-02-10T19:40:44.906Z,99153.41
2019-02-10T19:43:39.119Z,99154.23
2019-02-10T19:46:23.507Z,99162.63
2019-02-10T19:49:15.056Z,99166.38
2019-02-10T19:52:17.909Z,99179.77
2019-02-10T19:55:17.904Z,99185.30
2019-02-10T19:58:09.438Z,99192.87
2019-02-10T20:00:56.524Z,99204.41
2019-02-10T20:03:43.652Z,99212.27
2019-02-10T20:06:23.618Z,99213.74
2019-02-10T20:09:14.986Z,99221.13
2019-02-10T20:12:04.327Z,99221.59
2019-02-10T20:14:58.269Z,99232.43
2019-02-10T20:17:58.727Z,99242.40
2019-02-10T20:20:52.781Z,99247.94
2019-02-10T20:23:59.133Z,99253.39
2019-02-10T20:26:51.161Z,99268.53
2019-02-10T20:29:39.831Z,99274.91
2019-02-10T20:32:25.378Z,99279.23
2019-02-10T20:35:11.056Z,99285.61
2019-02-10T20:38:03.413Z,99296.48
2019-02-10T20:41:02.571Z,99305.46
2019-02-10T20:43:49.592Z,99317.06
2019-02-10T20:46:39.299Z,99330.27
2019-02-10T20:49:22.796Z,99327.04
2019-02-10T20:52:09.959Z,99341.17
2019-02-10T20:55:02.221Z,99357.33
2019-02-10T20:58:05.701Z,99363.77
2019-02-10T21:00:55.128Z,99364.69
2019-02-10T21:03:42.199Z,99376.33
2019-02-10T21:06:18.524Z,99380.48
2019-02-10T21:09:01.005Z,99387.14
2019-02-10T21:11:44.660Z,99393.61
2019-02-10T21:14:47.308Z,99400.17
2019-02-10T21:17:26.417Z,99409.03
2019-02-10T21:20:26.693Z,99419.84
2019-02-10T21:23:17.010Z,99428.53
2019-02-10T21:26:03.871Z,99436.94
2019-02-10T21:28:46.182Z,99442.66
2019-02-10T21:31:31.254Z,99456.96
2019-02-10T21:34:18.198Z,99465.83
2019-02-10T21:37:15.477Z,99472.48
2019-02-10T21:40:03.131Z,99478.13
2019-02-10T21:42:57.139Z,99487.16
2019-02-10T21:45:57.326Z,99497.16
2019-02-10T21:48:30.281Z,99497.53
2019-02-10T21:50:59.616Z,99505.36
2019-02-10T21:53:29.082Z,99518.39
2019-02-10T21:56:00.773Z,99517.71
2019-02-10T21:58:30.281Z,99534.45
2019-02-10T22:00:59.513Z,99538.89
2019-02-10T22:03:28.954Z,99547.12
2019-02-10T22:05:58.224Z,99550.64
2019-02-10T22:08:27.537Z,99563.68
2019-02-10T22:10:56.857Z,99565.91
2019-02-10T22:13:26.028Z,99565.91
2019-02-10T22:15:56.932Z,99577.34
2019-02-10T22:18:26.232Z,99589.73
2019-02-10T22:20:55.598Z,99586.41
2019-02-10T22:23:24.914Z,99599.27
2019-02-10T22:25:54.176Z,99609.91
2019-02-10T22:28:23.405Z,99612.78
2019-02-10T22:30:52.911Z,99627.67
2019-02-10T22:33:22.155Z,99637.55
2019-02-10T22:35:51.317Z,99645.23
2019-02-10T22:38:20.534Z,99651.52
2019-02-10T22:40:49.748Z,99663.92
2019-02-10T22:43:19.078Z,99671.98
2019-02-10T22:45:48.236Z,99670.31
2019-02-10T22:48:17.593Z,99685.86
2019-02-10T22:50:46.840Z,99682.90
2019-02-10T22:53:16.093Z,99697.70
2019-02-10T22:55:45.278Z,99701.51
2019-02-10T22:58:14.479Z,99721.50
2019-02-10T23:00:51.962Z,99724.83
2019-02-10T23:03:21.107Z,99736.50
2019-02-10T23:05:50.340Z,99743.16
2019-02-10T23:08:19.488Z,99750.75
2019-02-10T23:10:48.684Z,99758.81
2019-02-10T23:13:17.884Z,99762.41
2019-02-10T23:15:47.111Z,99766.28
2019-02-10T23:18:16.287Z,99781.00
2019-02-10T23:20:45.484Z,99785.26
2019-02-10T23:23:14.706Z,99791.19
2019-02-10T23:25:44.059Z,99797.39
2019-02-10T23:28:13.317Z,99812.11
2019-02-10T23:30:42.499Z,99815.81
2019-02-10T23:33:11.680Z,99820.36
2019-02-10T23:35:40.861Z,99833.96
2019-02-10T23:38:10.329Z,99845.62
2019-02-10T23:40:39.474Z,99848.77
2019-02-10T23:43:08.719Z,99853.95
2019-02-10T23:45:38.145Z,99867.67
2019-02-10T23:48:07.482Z,99876.28
2019-02-10T23:50:36.770Z,99877.58
2019-02-10T23:53:05.931Z,99891.55
2019-02-10T23:55:35.177Z,99899.98
2019-02-10T23:58:04.353Z,99909.34
